Time;durP1;ratioP1;P1;durP2;ratioP2;P2;SDS_P1;SDS_P2;PMS_P1;PMS_P2;Temp;Humidity;BMP_temperature;BMP_pressure;BME280_temperature;BME280_humidity;BME280_pressure;Samples;Min_cycle;Max_cycle;Signal;HPM_P1;HPM_P2
2022/05/16 00:01:51;;;;;;;8.17;3.40;;;15.20;99.90;;;;;;4933763;29;20205;-69
2022/05/16 00:04:17;;;;;;;5.60;3.50;;;15.20;99.90;;;;;;4934694;29;20823;-70
2022/05/16 00:06:42;;;;;;;7.00;2.90;;;15.20;99.90;;;;;;4934349;29;20682;-69
2022/05/16 00:09:08;;;;;;;10.63;3.33;;;15.10;99.90;;;;;;4933895;29;20177;-70
2022/05/16 00:11:34;;;;;;;4.20;3.13;;;15.10;99.90;;;;;;4934754;29;20198;-72
2022/05/16 00:14:00;;;;;;;10.23;2.60;;;15.10;99.90;;;;;;4935982;29;20231;-72
2022/05/16 00:16:26;;;;;;;4.13;2.63;;;15.10;99.90;;;;;;4934714;29;20448;-73
2022/05/16 00:18:51;;;;;;;5.40;3.17;;;15.10;99.90;;;;;;4934121;29;20197;-68
2022/05/16 00:21:20;;;;;;;4.67;3.33;;;15.00;99.90;;;;;;4932670;29;20244;-70
2022/05/16 00:23:45;;;;;;;2.63;2.37;;;15.00;99.90;;;;;;4934070;29;20173;-70
2022/05/16 00:26:11;;;;;;;2.93;2.50;;;15.10;99.90;;;;;;4933968;29;20503;-68
2022/05/16 00:28:37;;;;;;;3.43;2.97;;;15.00;99.90;;;;;;4934023;29;20320;-71
2022/05/16 00:31:04;;;;;;;7.00;2.87;;;15.10;99.90;;;;;;4933076;29;20221;-70
2022/05/16 00:33:30;;;;;;;3.30;2.77;;;15.10;99.90;;;;;;4933325;29;20315;-70
2022/05/16 00:35:55;;;;;;;2.90;2.67;;;15.00;99.90;;;;;;4933767;29;20858;-70
2022/05/16 00:38:21;;;;;;;4.30;3.30;;;15.00;99.90;;;;;;4933759;29;20256;-70
2022/05/16 00:40:46;;;;;;;3.57;3.27;;;15.10;99.90;;;;;;4932944;29;20284;-70
2022/05/16 00:43:13;;;;;;;4.60;2.90;;;15.00;99.90;;;;;;4933757;29;20264;-71
2022/05/16 00:45:39;;;;;;;7.37;4.00;;;15.10;99.90;;;;;;4933688;29;20771;-70
2022/05/16 00:48:05;;;;;;;8.30;3.40;;;15.00;99.90;;;;;;4933271;29;20770;-70
2022/05/16 00:50:39;;;;;;;5.50;3.20;;;15.00;99.90;;;;;;4932921;29;20464;-68
2022/05/16 00:53:06;;;;;;;6.87;3.73;;;15.00;99.90;;;;;;4933605;29;20424;-72
2022/05/16 00:55:36;;;;;;;4.83;3.37;;;14.90;99.90;;;;;;4933334;29;20475;-69
2022/05/16 00:58:09;;;;;;;2.87;2.67;;;15.00;99.90;;;;;;4932290;29;20429;-70
2022/05/16 02:32:14;;;;;;;3.53;2.60;;;14.20;99.90;;;;;;5269182;23;20508;-70
2022/05/16 02:34:41;;;;;;;6.70;3.10;;;14.30;99.90;;;;;;4935818;29;20437;-71
2022/05/16 02:37:07;;;;;;;3.43;2.43;;;14.20;99.90;;;;;;4936562;29;20219;-70
2022/05/16 02:39:34;;;;;;;7.13;3.40;;;14.30;99.90;;;;;;4936019;29;20433;-68
2022/05/16 02:42:00;;;;;;;4.30;2.60;;;14.20;99.90;;;;;;4935438;29;20417;-69
2022/05/16 02:44:25;;;;;;;2.53;2.20;;;14.30;99.90;;;;;;4935962;29;20416;-69
2022/05/16 02:46:51;;;;;;;4.43;3.20;;;14.30;99.90;;;;;;4935351;29;20778;-67
2022/05/16 02:49:16;;;;;;;3.33;3.03;;;14.40;99.90;;;;;;4935773;29;20217;-69
2022/05/16 02:51:42;;;;;;;3.93;3.00;;;14.40;99.90;;;;;;4935040;29;20212;-68
2022/05/16 02:54:08;;;;;;;6.30;3.20;;;14.40;99.90;;;;;;4935913;29;20417;-70
2022/05/16 02:56:34;;;;;;;9.47;2.80;;;14.40;99.90;;;;;;4935272;29;20181;-69
2022/05/16 02:59:00;;;;;;;2.40;2.20;;;14.40;99.90;;;;;;4935760;29;20199;-68
2022/05/16 03:01:25;;;;;;;4.90;2.80;;;14.40;99.90;;;;;;4934164;29;21069;-70
2022/05/16 03:03:51;;;;;;;3.57;2.10;;;14.40;99.90;;;;;;4935793;29;20432;-67
2022/05/16 03:06:17;;;;;;;3.80;2.23;;;14.50;99.90;;;;;;4935526;29;20709;-70
2022/05/16 03:08:43;;;;;;;4.20;1.90;;;14.60;99.90;;;;;;4933803;29;20178;-69
2022/05/16 03:11:08;;;;;;;4.20;3.40;;;14.60;99.90;;;;;;4934707;29;20842;-70
2022/05/16 03:13:34;;;;;;;2.73;2.50;;;14.70;99.90;;;;;;4934158;29;20216;-69
2022/05/16 03:16:00;;;;;;;5.90;1.77;;;14.80;99.90;;;;;;4935679;29;20176;-70
2022/05/16 03:18:30;;;;;;;3.30;2.30;;;14.90;99.90;;;;;;4935421;29;20186;-70
2022/05/16 03:20:56;;;;;;;2.40;2.20;;;15.00;99.90;;;;;;4935849;29;20437;-70
2022/05/16 03:23:22;;;;;;;2.87;2.67;;;15.10;99.90;;;;;;4936616;29;20421;-70
2022/05/16 03:25:49;;;;;;;3.03;2.00;;;15.10;99.90;;;;;;4935982;29;20761;-70
2022/05/16 03:28:14;;;;;;;2.23;2.10;;;15.20;99.90;;;;;;4935144;29;20217;-69
2022/05/16 03:30:41;;;;;;;4.00;2.37;;;15.20;99.90;;;;;;4934589;29;20464;-70
2022/05/16 03:33:07;;;;;;;2.37;1.70;;;15.20;99.90;;;;;;4930770;29;20272;-69
2022/05/16 03:35:33;;;;;;;2.50;2.30;;;15.30;99.90;;;;;;4935143;29;20492;-69
2022/05/16 03:37:58;;;;;;;3.27;2.50;;;15.40;99.90;;;;;;4935124;29;20243;-70
2022/05/16 03:40:43;;;;;;;2.80;2.30;;;15.40;99.90;;;;;;4934575;29;20209;-69
2022/05/16 03:43:12;;;;;;;3.67;3.23;;;15.50;99.90;;;;;;4934741;29;20565;-70
2022/05/16 03:45:38;;;;;;;8.80;3.50;;;15.60;99.90;;;;;;4934623;29;20418;-70
2022/05/16 03:48:05;;;;;;;3.27;3.00;;;15.60;99.90;;;;;;4934628;29;20417;-70
2022/05/16 03:50:30;;;;;;;2.20;2.07;;;15.60;99.90;;;;;;4934209;29;20224;-67
2022/05/16 03:52:59;;;;;;;4.80;2.40;;;15.60;99.90;;;;;;4934665;28;20436;-70
2022/05/16 03:55:25;;;;;;;2.10;1.90;;;15.70;99.90;;;;;;4934734;29;20228;-70
2022/05/16 03:57:52;;;;;;;2.67;2.40;;;15.70;99.90;;;;;;4934557;29;20421;-68
2022/05/16 04:00:18;;;;;;;3.57;2.37;;;15.70;99.90;;;;;;4933974;29;20820;-70
2022/05/16 04:02:44;;;;;;;2.73;2.50;;;15.80;99.90;;;;;;4932680;29;20452;-70
2022/05/16 04:05:15;;;;;;;2.27;2.17;;;15.70;99.90;;;;;;4934349;29;20421;-67
2022/05/16 04:07:41;;;;;;;3.30;2.13;;;15.70;99.90;;;;;;4934638;29;20433;-70
2022/05/16 04:10:07;;;;;;;2.93;2.27;;;15.70;99.90;;;;;;4933738;29;20469;-69
2022/05/16 04:12:34;;;;;;;2.70;2.47;;;15.70;99.90;;;;;;4933638;29;20469;-70
2022/05/16 04:14:59;;;;;;;2.83;2.50;;;15.70;99.90;;;;;;4934573;29;20414;-70
2022/05/16 04:17:25;;;;;;;5.00;2.70;;;15.80;99.90;;;;;;4934166;29;20509;-70
2022/05/16 04:19:50;;;;;;;2.90;2.43;;;15.80;99.90;;;;;;4934090;29;20192;-67
2022/05/16 04:22:16;;;;;;;2.70;2.50;;;15.90;99.90;;;;;;4933517;29;20239;-69
2022/05/16 04:24:41;;;;;;;4.73;2.80;;;15.90;99.90;;;;;;4933756;29;20215;-69
2022/05/16 04:27:07;;;;;;;10.47;2.80;;;15.90;99.90;;;;;;4934077;29;20189;-69
2022/05/16 04:29:32;;;;;;;5.03;1.97;;;15.90;99.90;;;;;;4933848;29;20197;-68
2022/05/16 04:31:58;;;;;;;3.40;3.10;;;15.90;99.90;;;;;;4933267;29;20321;-69
2022/05/16 04:34:23;;;;;;;7.33;3.07;;;15.90;99.90;;;;;;4932694;29;20188;-70
2022/05/16 04:36:49;;;;;;;7.40;3.40;;;15.90;99.90;;;;;;4934279;29;20662;-69
2022/05/16 04:39:14;;;;;;;3.43;3.13;;;15.80;99.90;;;;;;4933727;29;20181;-69
2022/05/16 04:44:24;;;;;;;3.70;3.07;;;15.80;99.90;;;;;;4933390;29;20180;-69
2022/05/16 04:46:50;;;;;;;11.30;7.90;;;15.80;99.90;;;;;;4933774;29;20930;-70
2022/05/16 04:49:15;;;;;;;6.33;4.40;;;15.80;99.90;;;;;;4933151;29;20181;-69
2022/05/16 04:51:41;;;;;;;7.00;4.93;;;15.90;99.90;;;;;;4932909;29;20693;-69
2022/05/16 04:54:07;;;;;;;9.07;4.60;;;16.00;99.90;;;;;;4933629;29;20173;-69
2022/05/16 04:56:33;;;;;;;6.47;4.80;;;16.00;99.90;;;;;;4933611;29;20193;-70
2022/05/16 04:58:58;;;;;;;5.50;4.10;;;16.00;99.90;;;;;;4933682;29;20181;-68
2022/05/16 05:01:24;;;;;;;5.53;3.90;;;16.10;99.90;;;;;;4932090;29;20444;-68
2022/05/16 05:03:50;;;;;;;4.47;3.53;;;16.10;99.90;;;;;;4933564;29;20188;-69
2022/05/16 05:06:17;;;;;;;5.67;3.20;;;16.20;99.90;;;;;;4933444;29;20216;-68
2022/05/16 05:08:43;;;;;;;3.67;3.03;;;16.20;99.90;;;;;;4933488;29;20177;-68
2022/05/16 05:16:38;;;;;;;4.40;2.70;;;16.50;99.90;;;;;;4914627;29;20961;-69
2022/05/16 05:19:03;;;;;;;3.70;3.40;;;16.60;99.90;;;;;;4914457;29;20814;-69
2022/05/16 05:21:29;;;;;;;5.60;3.93;;;16.70;99.90;;;;;;4913258;29;20438;-69
2022/05/16 05:23:55;;;;;;;3.80;3.50;;;16.80;99.90;;;;;;4913959;29;20710;-69
2022/05/16 05:26:21;;;;;;;6.43;3.47;;;16.90;99.90;;;;;;4914087;29;20505;-70
2022/05/16 05:28:46;;;;;;;6.20;3.23;;;16.90;99.90;;;;;;4913627;29;20272;-70
2022/05/16 05:31:14;;;;;;;4.03;3.80;;;17.00;99.90;;;;;;4912723;29;20221;-68
2022/05/16 05:33:40;;;;;;;3.83;3.53;;;17.00;99.90;;;;;;4914126;29;20174;-69
2022/05/16 05:36:08;;;;;;;4.13;3.73;;;17.00;99.90;;;;;;4913622;29;20414;-70
2022/05/16 05:38:36;;;;;;;4.47;4.07;;;17.00;99.90;;;;;;4913998;29;20915;-68
2022/05/16 05:41:02;;;;;;;8.03;4.40;;;17.10;99.90;;;;;;4913461;29;20438;-69
2022/05/16 05:43:28;;;;;;;4.67;3.80;;;17.10;99.90;;;;;;4913741;29;20830;-70
2022/05/16 05:45:53;;;;;;;11.87;4.30;;;17.10;99.90;;;;;;4914713;29;20422;-68
2022/05/16 05:48:19;;;;;;;9.23;4.53;;;17.10;99.90;;;;;;4917338;29;20177;-70
2022/05/16 05:50:44;;;;;;;4.13;3.73;;;17.20;99.90;;;;;;4917403;29;20293;-70
2022/05/16 05:53:10;;;;;;;6.63;4.20;;;17.20;99.90;;;;;;4917817;29;20237;-67
2022/05/16 05:55:35;;;;;;;6.70;3.90;;;17.30;99.90;;;;;;4917462;29;20182;-69
2022/05/16 05:58:01;;;;;;;10.77;4.40;;;17.30;99.90;;;;;;4917853;29;20655;-69
2022/05/16 06:00:26;;;;;;;7.20;3.90;;;17.50;99.90;;;;;;4917466;29;20707;-69
2022/05/16 06:02:53;;;;;;;6.60;3.77;;;17.60;99.90;;;;;;4917274;29;20682;-69
2022/05/16 06:05:20;;;;;;;3.57;3.27;;;17.70;99.90;;;;;;4917790;29;20178;-70
2022/05/16 06:07:46;;;;;;;4.13;3.60;;;17.70;99.90;;;;;;4918689;29;20426;-70
2022/05/16 06:10:11;;;;;;;6.03;3.50;;;17.80;99.90;;;;;;4917916;29;20462;-70
2022/05/16 06:12:39;;;;;;;5.30;3.67;;;17.90;99.90;;;;;;4917122;29;20201;-70
2022/05/16 06:15:06;;;;;;;5.80;4.60;;;18.00;99.90;;;;;;4917919;29;20175;-70
2022/05/16 06:17:32;;;;;;;5.23;4.03;;;18.10;99.90;;;;;;4917358;29;20962;-68
2022/05/16 06:19:57;;;;;;;7.90;3.67;;;18.30;99.90;;;;;;4917424;29;20414;-69
2022/05/16 06:22:23;;;;;;;5.70;2.60;;;18.60;99.90;;;;;;4916731;29;20212;-69
2022/05/16 06:27:33;;;;;;;3.40;3.10;;;19.00;99.90;;;;;;4917559;29;20489;-69
2022/05/16 06:29:59;;;;;;;3.23;2.83;;;19.20;99.90;;;;;;4917242;29;20528;-69
2022/05/16 06:32:25;;;;;;;3.40;2.70;;;19.30;99.90;;;;;;4915545;29;20300;-69
2022/05/16 06:34:52;;;;;;;5.80;3.90;;;19.60;99.90;;;;;;4917272;29;20517;-67
2022/05/16 06:37:18;;;;;;;6.37;3.73;;;20.00;99.90;;;;;;4915974;29;20252;-70
2022/05/16 06:39:47;;;;;;;5.97;3.60;;;20.40;99.90;;;;;;4916795;29;20596;-69
2022/05/16 06:42:12;;;;;;;9.53;3.60;;;20.90;99.90;;;;;;4916122;29;20938;-69
2022/05/16 06:44:38;;;;;;;3.27;3.00;;;21.30;99.90;;;;;;4917152;29;20477;-69
2022/05/16 06:47:05;;;;;;;3.77;3.23;;;21.80;99.90;;;;;;4916804;29;20655;-70
2022/05/16 06:49:31;;;;;;;3.87;3.57;;;22.40;99.90;;;;;;4916738;29;20480;-68
2022/05/16 06:51:57;;;;;;;4.40;3.00;;;23.00;99.90;;;;;;4916228;29;20536;-70
2022/05/16 06:54:23;;;;;;;3.13;2.80;;;23.40;99.90;;;;;;4916519;29;20505;-69
2022/05/16 06:56:48;;;;;;;3.70;3.40;;;23.60;99.90;;;;;;4916796;29;20202;-70
2022/05/16 06:59:14;;;;;;;3.10;2.60;;;23.80;99.90;;;;;;4915765;29;20209;-69
2022/05/16 07:01:39;;;;;;;3.27;3.07;;;23.90;99.90;;;;;;4915927;29;20226;-70
2022/05/16 07:04:05;;;;;;;4.80;2.60;;;24.20;99.90;;;;;;4916840;29;20186;-70
2022/05/16 07:06:31;;;;;;;3.13;2.93;;;24.40;99.90;;;;;;4916517;29;20429;-67
2022/05/16 07:08:57;;;;;;;8.23;3.37;;;24.80;99.90;;;;;;4916384;29;20256;-69
2022/05/16 07:11:22;;;;;;;3.57;2.47;;;25.00;99.90;;;;;;4915680;29;20465;-70
2022/05/16 07:13:48;;;;;;;4.40;2.37;;;25.30;99.90;;;;;;4916598;29;20230;-70
2022/05/16 07:16:13;;;;;;;4.40;2.63;;;25.80;99.90;;;;;;4916367;29;20225;-70
2022/05/16 07:18:39;;;;;;;2.60;2.23;;;26.10;99.90;;;;;;4916764;29;20174;-69
2022/05/16 07:21:05;;;;;;;3.80;2.67;;;26.00;99.90;;;;;;4915398;29;20202;-69
2022/05/16 07:23:31;;;;;;;4.40;2.80;;;25.90;99.90;;;;;;4916129;29;20182;-68
2022/05/16 07:28:41;;;;;;;4.13;2.80;;;25.40;99.90;;;;;;4916414;29;20193;-70
2022/05/16 07:31:07;;;;;;;2.30;2.20;;;25.60;99.90;;;;;;4915325;29;20462;-70
2022/05/16 07:33:34;;;;;;;2.77;2.40;;;25.80;99.90;;;;;;4914411;29;20229;-69
2022/05/16 07:35:59;;;;;;;5.00;3.00;;;26.10;99.90;;;;;;4916375;29;20418;-68
2022/05/16 07:38:26;;;;;;;5.50;3.27;;;26.40;99.90;;;;;;4915989;29;20445;-69
2022/05/16 07:40:52;;;;;;;3.80;2.97;;;26.40;99.90;;;;;;4915133;29;20193;-68
2022/05/16 07:43:19;;;;;;;6.53;3.17;;;26.10;99.90;;;;;;4915847;29;20426;-69
2022/05/16 07:45:44;;;;;;;7.10;3.10;;;26.00;99.90;;;;;;4916173;29;20462;-70
2022/05/16 07:48:12;;;;;;;3.13;2.70;;;26.00;99.90;;;;;;4915651;29;20461;-67
2022/05/16 07:50:38;;;;;;;3.43;3.13;;;25.50;99.90;;;;;;4914958;29;20575;-69
2022/05/16 07:53:05;;;;;;;5.40;2.97;;;25.10;99.90;;;;;;4915836;29;20422;-70
2022/05/16 07:55:31;;;;;;;3.00;2.80;;;24.90;99.90;;;;;;4915977;29;20442;-67
2022/05/16 07:57:57;;;;;;;5.87;3.60;;;24.80;99.90;;;;;;4915662;29;20433;-70
2022/05/16 08:00:23;;;;;;;4.00;3.70;;;24.70;99.90;;;;;;4915778;29;21086;-69
2022/05/16 08:02:50;;;;;;;4.00;3.43;;;24.50;99.90;;;;;;4914979;29;20288;-70
2022/05/16 08:05:17;;;;;;;7.20;4.40;;;24.20;99.90;;;;;;4915896;29;20474;-69
2022/05/16 08:10:31;;;;;;;5.20;4.10;;;23.70;99.90;;;;;;4914861;29;20924;-69
2022/05/16 08:12:58;;;;;;;3.97;3.60;;;23.40;99.90;;;;;;4915339;29;20445;-69
2022/05/16 08:15:25;;;;;;;6.57;4.30;;;23.30;99.90;;;;;;4914913;29;20579;-70
2022/05/16 08:17:51;;;;;;;5.13;3.97;;;23.10;99.90;;;;;;4915441;29;20477;-68
2022/05/16 08:20:17;;;;;;;5.50;4.30;;;23.10;99.90;;;;;;4915365;29;20418;-68
2022/05/16 08:22:42;;;;;;;4.37;3.97;;;23.10;99.90;;;;;;4914688;29;20205;-70
2022/05/16 08:25:08;;;;;;;8.33;4.10;;;23.00;99.90;;;;;;4915012;29;20177;-69
2022/05/16 08:27:34;;;;;;;7.03;4.27;;;23.00;99.90;;;;;;4915252;29;20190;-69
2022/05/16 08:29:59;;;;;;;5.47;5.03;;;22.90;99.90;;;;;;4915176;29;20535;-69
2022/05/16 08:32:25;;;;;;;4.43;3.80;;;22.90;99.90;;;;;;4914157;29;20225;-70
2022/05/16 08:34:56;;;;;;;5.27;4.57;;;23.00;99.90;;;;;;4915251;29;20226;-67
2022/05/16 08:40:06;;;;;;;4.87;4.50;;;22.90;99.90;;;;;;4914554;29;20469;-70
2022/05/16 08:42:50;;;;;;;8.63;4.67;;;23.10;99.90;;;;;;4914255;29;20823;-69
2022/05/16 08:45:37;;;;;;;6.03;4.70;;;24.00;99.90;;;;;;4915086;29;20418;-69
2022/05/16 08:48:08;;;;;;;8.27;4.00;;;24.60;99.90;;;;;;4914970;29;20444;-70
2022/05/16 08:51:04;;;;;;;8.20;4.00;;;25.30;99.90;;;;;;4913969;29;20468;-68
2022/05/16 08:53:50;;;;;;;4.80;4.20;;;26.20;99.90;;;;;;4914306;29;20501;-70
2022/05/16 08:56:19;;;;;;;4.67;3.90;;;27.00;99.90;;;;;;4914716;29;20417;-69
2022/05/16 08:59:17;;;;;;;13.13;4.70;;;27.70;99.90;;;;;;4916157;29;20924;-70
2022/05/16 09:01:52;;;;;;;10.90;6.00;;;27.70;99.90;;;;;;4913877;29;20445;-70
2022/05/16 09:04:48;;;;;;;5.07;4.10;;;27.50;99.90;;;;;;4915478;29;20437;-70
2022/05/16 09:07:28;;;;;;;9.07;4.77;;;27.10;99.90;;;;;;4913960;29;20493;-69
2022/05/16 09:10:08;;;;;;;6.00;4.03;;;26.70;99.90;;;;;;4914534;29;20512;-70
2022/05/16 09:12:59;;;;;;;6.97;4.27;;;26.30;99.90;;;;;;4913717;29;20434;-70
2022/05/16 09:15:30;;;;;;;10.57;4.47;;;26.10;99.90;;;;;;4914576;29;21079;-70
2022/05/16 09:18:15;;;;;;;4.90;4.40;;;26.50;99.90;;;;;;4914590;29;20406;-70
2022/05/16 09:21:12;;;;;;;12.57;4.67;;;26.50;99.90;;;;;;4913322;29;20425;-69
2022/05/16 09:24:02;;;;;;;9.43;4.27;;;26.90;99.90;;;;;;4914084;29;20656;-69
2022/05/16 09:26:54;;;;;;;8.37;4.00;;;27.20;99.90;;;;;;4914355;29;20418;-70
2022/05/16 09:29:31;;;;;;;4.43;3.87;;;28.00;99.90;;;;;;4914009;29;20903;-70
2022/05/16 09:32:06;;;;;;;8.30;3.90;;;28.50;99.90;;;;;;4912975;29;20519;-71
2022/05/16 09:34:32;;;;;;;7.83;3.60;;;28.10;99.90;;;;;;4914556;29;20410;-69
2022/05/16 09:36:58;;;;;;;5.90;3.63;;;27.60;99.90;;;;;;4914288;29;20417;-70
2022/05/16 09:39:31;;;;;;;6.10;4.77;;;27.40;99.90;;;;;;4914533;29;20418;-70
2022/05/16 09:42:04;;;;;;;8.03;4.43;;;27.20;99.90;;;;;;4913420;29;20190;-70
2022/05/16 09:44:47;;;;;;;7.10;4.53;;;27.00;99.90;;;;;;4913802;29;20418;-69
2022/05/16 09:47:16;;;;;;;7.80;5.23;;;26.70;99.90;;;;;;4913511;29;20407;-69
2022/05/16 09:49:42;;;;;;;9.70;5.03;;;26.30;99.90;;;;;;4914217;29;21001;-69
2022/05/16 09:52:21;;;;;;;4.57;4.17;;;26.00;99.90;;;;;;4913582;29;20975;-70
2022/05/16 09:54:59;;;;;;;7.47;4.23;;;25.70;99.90;;;;;;4914241;29;20465;-70
2022/05/16 09:57:25;;;;;;;5.93;4.87;;;25.70;99.90;;;;;;4912970;29;20429;-69
2022/05/16 09:59:58;;;;;;;5.97;4.00;;;25.50;99.90;;;;;;4912204;29;20418;-68
2022/05/16 10:02:34;;;;;;;10.23;4.43;;;25.40;99.90;;;;;;4913667;29;20217;-69
2022/05/16 10:05:20;;;;;;;10.63;4.07;;;25.40;99.90;;;;;;4913944;29;20418;-69
2022/05/16 10:07:49;;;;;;;12.03;4.10;;;25.30;99.90;;;;;;4914204;29;20776;-70
2022/05/16 10:10:25;;;;;;;5.77;4.07;;;25.50;99.90;;;;;;4912906;29;20472;-70
2022/05/16 10:12:53;;;;;;;4.57;4.17;;;25.80;99.90;;;;;;4913428;29;20437;-67
2022/05/16 10:15:20;;;;;;;4.37;3.90;;;26.00;99.90;;;;;;4913901;29;20418;-70
2022/05/16 10:17:47;;;;;;;6.17;4.03;;;25.80;99.90;;;;;;4914095;29;20461;-70
2022/05/16 10:20:39;;;;;;;7.07;4.40;;;25.80;99.90;;;;;;4913535;29;21022;-70
2022/05/16 10:23:11;;;;;;;9.70;4.80;;;25.80;99.90;;;;;;4913503;29;20426;-70
2022/05/16 10:25:43;;;;;;;7.70;4.27;;;25.80;99.90;;;;;;4913761;29;20418;-71
2022/05/16 10:28:15;;;;;;;4.27;3.83;;;25.70;99.90;;;;;;4913728;29;20446;-70
2022/05/16 10:33:29;;;;;;;6.97;4.30;;;25.70;99.90;;;;;;4916884;29;20458;-70
2022/05/16 10:36:07;;;;;;;4.33;3.93;;;25.50;99.90;;;;;;4917371;29;20919;-70
2022/05/16 10:38:37;;;;;;;8.93;4.10;;;25.30;99.90;;;;;;4916997;29;20461;-69
2022/05/16 10:41:09;;;;;;;8.33;4.00;;;25.00;99.90;;;;;;4916379;29;20434;-69
2022/05/16 10:43:46;;;;;;;4.83;3.73;;;24.80;99.90;;;;;;4917119;29;20430;-69
2022/05/16 10:46:18;;;;;;;5.47;3.80;;;24.60;99.90;;;;;;4916480;29;20421;-68
2022/05/16 10:48:50;;;;;;;10.87;4.60;;;24.60;99.90;;;;;;4917067;29;20485;-70
2022/05/16 10:51:28;;;;;;;10.30;3.90;;;24.60;99.90;;;;;;4916018;29;20990;-69
2022/05/16 10:54:12;;;;;;;6.83;3.60;;;24.60;99.90;;;;;;4916986;29;20417;-69
2022/05/16 10:56:55;;;;;;;7.40;3.30;;;24.70;99.90;;;;;;4917160;29;20414;-69
2022/05/16 10:59:42;;;;;;;13.03;3.90;;;24.80;99.90;;;;;;4916400;29;20418;-70
2022/05/16 11:02:52;;;;;;;8.77;3.93;;;24.90;99.90;;;;;;4915982;29;20449;-70
2022/05/16 11:05:34;;;;;;;4.30;3.37;;;24.80;99.90;;;;;;4916815;29;20418;-70
2022/05/16 11:08:23;;;;;;;8.53;2.80;;;24.80;99.90;;;;;;4918054;29;20788;-69
2022/05/16 11:11:10;;;;;;;8.13;2.73;;;24.80;99.90;;;;;;4915898;29;20469;-70
2022/05/16 11:13:47;;;;;;;7.40;2.70;;;24.70;99.90;;;;;;4917559;29;20930;-69
2022/05/16 11:16:20;;;;;;;8.00;3.10;;;24.70;99.90;;;;;;4916394;29;20461;-69
2022/05/16 11:19:21;;;;;;;5.10;3.43;;;24.60;99.90;;;;;;4916678;29;20414;-70
2022/05/16 11:22:00;;;;;;;6.50;3.00;;;24.20;99.90;;;;;;4915860;29;20895;-70
2022/05/16 11:24:37;;;;;;;4.23;2.93;;;24.00;99.90;;;;;;4916262;29;20445;-70
2022/05/16 11:27:10;;;;;;;12.50;2.70;;;23.90;99.90;;;;;;4916374;29;20418;-70
2022/05/16 11:29:45;;;;;;;9.30;2.70;;;23.70;99.90;;;;;;4915921;29;20466;-70
2022/05/16 11:32:44;;;;;;;3.43;2.40;;;23.60;99.90;;;;;;4915340;29;20978;-67
2022/05/16 11:35:16;;;;;;;2.93;2.33;;;23.50;99.90;;;;;;4916248;29;20501;-69
2022/05/16 11:38:33;;;;;;;7.37;2.80;;;23.30;99.90;;;;;;4916009;29;20417;-69
2022/05/16 11:41:17;;;;;;;2.57;2.07;;;23.20;99.90;;;;;;4910860;29;20450;-70
2022/05/16 11:44:18;;;;;;;8.00;2.47;;;23.20;99.90;;;;;;4915519;29;20414;-69
2022/05/16 11:46:51;;;;;;;2.93;2.40;;;23.30;99.90;;;;;;4916150;29;20410;-69
2022/05/16 11:49:31;;;;;;;5.63;1.80;;;23.30;99.90;;;;;;4915743;29;20679;-69
2022/05/16 11:52:30;;;;;;;3.23;1.60;;;23.20;99.90;;;;;;4915140;29;20430;-69
2022/05/16 12:01:06;;;;;;;8.23;1.53;;;22.80;99.90;;;;;;4915925;29;20425;-69
2022/05/16 12:03:43;;;;;;;3.30;1.10;;;22.60;99.90;;;;;;4915999;29;20430;-68
2022/05/16 12:06:34;;;;;;;5.90;1.30;;;22.40;99.90;;;;;;4917452;29;20931;-70
2022/05/16 12:09:17;;;;;;;2.97;0.93;;;22.10;99.90;;;;;;4915880;29;20469;-68
2022/05/16 12:11:55;;;;;;;5.30;1.10;;;22.00;99.90;;;;;;4915155;29;20434;-68
2022/05/16 12:14:32;;;;;;;7.43;1.40;;;21.80;99.90;;;;;;4915744;29;20797;-70
2022/05/16 12:17:07;;;;;;;2.20;1.50;;;21.60;99.90;;;;;;4915593;29;20410;-69
2022/05/16 12:19:34;;;;;;;6.70;1.77;;;21.20;99.90;;;;;;4915582;29;20414;-68
2022/05/16 12:22:02;;;;;;;3.47;1.43;;;20.90;99.90;;;;;;4914215;29;20445;-69
2022/05/16 12:24:31;;;;;;;6.20;1.57;;;20.40;99.90;;;;;;4915076;29;20443;-69
2022/05/16 12:27:00;;;;;;;2.70;1.60;;;19.90;99.90;;;;;;4915500;29;20943;-70
2022/05/16 12:29:32;;;;;;;5.10;1.63;;;19.60;99.90;;;;;;4914872;29;20422;-69
2022/05/16 12:31:58;;;;;;;4.20;2.00;;;19.40;99.90;;;;;;4914468;29;20468;-69
2022/05/16 12:34:30;;;;;;;5.10;2.20;;;19.20;99.90;;;;;;4914640;29;20449;-69
2022/05/16 12:36:56;;;;;;;3.27;1.87;;;19.00;99.90;;;;;;4915249;29;20858;-70
2022/05/16 12:39:34;;;;;;;12.60;1.67;;;18.80;99.90;;;;;;4914954;29;20422;-71
2022/05/16 12:42:44;;;;;;;3.30;1.87;;;18.70;99.90;;;;;;4914413;29;20782;-71
2022/05/16 12:45:42;;;;;;;7.53;2.27;;;18.60;99.90;;;;;;4914775;29;20571;-72
2022/05/16 12:48:33;;;;;;;4.50;1.73;;;18.50;99.90;;;;;;4914897;29;20406;-72
2022/05/16 12:51:35;;;;;;;3.53;2.00;;;18.40;99.90;;;;;;4904281;29;20513;-73
2022/05/16 12:54:38;;;;;;;12.80;2.70;;;18.20;99.90;;;;;;4914742;29;20421;-72
2022/05/16 12:57:21;;;;;;;6.23;2.77;;;18.20;99.90;;;;;;4914572;29;20422;-71
2022/05/16 12:59:53;;;;;;;5.10;2.13;;;18.10;99.90;;;;;;4914925;29;20425;-72
2022/05/16 13:02:30;;;;;;;4.63;1.83;;;18.10;99.90;;;;;;4914045;29;20437;-71
2022/05/16 13:04:59;;;;;;;5.43;2.07;;;18.00;99.90;;;;;;4914175;29;20414;-72
2022/05/16 13:07:52;;;;;;;4.00;2.23;;;18.20;99.90;;;;;;4914477;29;20426;-71
2022/05/16 13:10:34;;;;;;;6.23;1.80;;;18.30;99.90;;;;;;4914500;29;20600;-72
2022/05/16 13:13:30;;;;;;;5.77;2.70;;;18.40;99.90;;;;;;4914101;29;20862;-72
2022/05/16 13:16:04;;;;;;;6.07;1.87;;;18.70;99.90;;;;;;4914652;29;20907;-72
2022/05/16 13:18:33;;;;;;;4.60;2.37;;;18.80;99.90;;;;;;4914475;29;20982;-70
2022/05/16 13:21:06;;;;;;;6.40;2.23;;;19.10;99.90;;;;;;4913577;29;20489;-70
2022/05/16 13:23:32;;;;;;;4.97;2.43;;;19.20;99.90;;;;;;4924520;29;20614;-71
2022/05/16 13:31:42;;;;;;;1.50;1.30;;;19.40;99.90;;;;;;4930670;28;20495;-70
2022/05/16 13:34:14;;;;;;;2.90;1.83;;;19.60;99.90;;;;;;4932144;29;20454;-70
2022/05/16 13:36:46;;;;;;;4.07;1.47;;;19.80;99.90;;;;;;4931857;28;20472;-68
2022/05/16 13:39:14;;;;;;;5.20;1.77;;;20.00;99.90;;;;;;4932008;29;21009;-69
2022/05/16 13:41:40;;;;;;;2.70;1.63;;;20.00;99.90;;;;;;4931032;28;20461;-68
2022/05/16 13:44:11;;;;;;;3.03;1.53;;;20.10;99.90;;;;;;4931657;29;20937;-70
2022/05/16 13:46:37;;;;;;;6.13;1.47;;;20.30;99.90;;;;;;4932419;28;20221;-71
2022/05/16 13:49:08;;;;;;;6.27;1.47;;;20.50;99.90;;;;;;4931900;29;20505;-70
2022/05/16 13:51:41;;;;;;;5.10;2.50;;;20.70;99.90;;;;;;4930568;28;20511;-70
2022/05/16 13:54:14;;;;;;;5.20;1.93;;;20.90;99.90;;;;;;4931501;29;21030;-71
2022/05/16 13:56:46;;;;;;;3.13;1.30;;;21.00;99.90;;;;;;4932055;28;20453;-70
2022/05/16 13:59:11;;;;;;;2.70;1.50;;;21.10;99.90;;;;;;4931338;29;20524;-70
2022/05/16 14:01:37;;;;;;;6.13;1.50;;;21.20;99.90;;;;;;4931071;28;20894;-69
2022/05/16 14:04:07;;;;;;;1.63;1.50;;;21.10;99.90;;;;;;4931660;29;20207;-70
2022/05/16 14:06:42;;;;;;;8.53;2.20;;;21.20;99.90;;;;;;4932005;28;20981;-71
2022/05/16 14:09:21;;;;;;;3.60;1.83;;;21.20;99.90;;;;;;4934870;29;20456;-69
2022/05/16 14:11:48;;;;;;;3.00;2.20;;;21.10;99.90;;;;;;4934717;28;20492;-70
2022/05/16 14:14:18;;;;;;;7.00;2.30;;;21.10;99.90;;;;;;4935443;29;20437;-71
2022/05/16 14:16:51;;;;;;;15.00;2.70;;;21.20;99.90;;;;;;4935460;28;20814;-69
2022/05/16 14:19:37;;;;;;;2.67;1.73;;;21.30;99.90;;;;;;4935570;29;21001;-70
2022/05/16 14:22:10;;;;;;;3.33;2.47;;;21.50;99.90;;;;;;4934945;28;20457;-69
2022/05/16 14:24:44;;;;;;;4.27;2.40;;;21.60;99.90;;;;;;4934363;29;20877;-70
2022/05/16 14:27:34;;;;;;;5.43;2.37;;;21.60;99.90;;;;;;4935420;28;20539;-70
2022/05/16 14:30:09;;;;;;;3.07;2.67;;;21.60;99.90;;;;;;4935445;29;20477;-70
2022/05/16 14:32:41;;;;;;;7.23;2.60;;;21.50;99.90;;;;;;4934390;28;20476;-70
2022/05/16 14:35:17;;;;;;;5.30;2.57;;;21.50;99.90;;;;;;4934630;29;20452;-70
2022/05/16 14:37:43;;;;;;;6.80;2.87;;;21.70;99.90;;;;;;4934667;28;20602;-70
2022/05/16 14:40:14;;;;;;;4.73;2.43;;;21.90;99.90;;;;;;4934591;29;20437;-70
2022/05/16 14:42:40;;;;;;;12.43;2.97;;;22.00;99.90;;;;;;4934113;28;20686;-69
2022/05/16 14:45:15;;;;;;;14.53;4.30;;;22.00;99.90;;;;;;4935141;29;20580;-69
2022/05/16 14:47:44;;;;;;;3.90;2.90;;;22.10;99.90;;;;;;4934225;28;20460;-69
2022/05/16 14:50:14;;;;;;;10.57;3.40;;;22.00;99.90;;;;;;4934855;29;20480;-70
2022/05/16 14:53:05;;;;;;;5.50;2.43;;;22.10;99.90;;;;;;4933961;28;20488;-69
2022/05/16 14:55:38;;;;;;;4.40;3.10;;;22.20;99.90;;;;;;4934386;29;20445;-70
2022/05/16 14:58:07;;;;;;;4.83;2.87;;;22.20;99.90;;;;;;4935629;29;20453;-70
2022/05/16 15:06:04;;;;;;;3.20;2.80;;;22.50;99.90;;;;;;4937444;29;20468;-71
2022/05/16 15:08:42;;;;;;;7.73;4.03;;;22.50;99.90;;;;;;4935546;29;20433;-70
2022/05/16 15:11:08;;;;;;;4.10;3.30;;;22.60;99.90;;;;;;4934829;29;20479;-70
2022/05/16 15:13:34;;;;;;;3.57;3.10;;;22.60;99.90;;;;;;4935327;29;20510;-69
2022/05/16 15:16:00;;;;;;;6.23;2.93;;;22.70;99.90;;;;;;4935054;29;20421;-70
2022/05/16 15:18:27;;;;;;;3.60;2.40;;;22.70;99.90;;;;;;4934417;29;20561;-71